createdAt,value
2019-04-26T00:01:27.758Z,10.46
2019-04-26T00:03:57.469Z,10.45
2019-04-26T00:06:27.546Z,10.40
2019-04-26T00:09:06.150Z,10.41
2019-04-26T00:11:46.412Z,10.37
2019-04-26T00:14:23.474Z,10.35
2019-04-26T00:16:54.937Z,10.34
2019-04-26T00:19:24.953Z,10.36
2019-04-26T00:21:55.218Z,10.30
2019-04-26T00:24:25.229Z,10.33
2019-04-26T00:26:54.992Z,10.39
2019-04-26T00:29:24.515Z,10.38
2019-04-26T00:31:54.539Z,10.41
2019-04-26T00:34:24.190Z,10.38
2019-04-26T00:36:53.900Z,10.33
2019-04-26T00:39:25.022Z,10.34
2019-04-26T00:41:55.185Z,10.36
2019-04-26T00:44:24.947Z,10.39
2019-04-26T00:46:57.542Z,10.45
2019-04-26T00:49:28.882Z,10.54
2019-04-26T00:51:59.419Z,10.46
2019-04-26T00:54:29.876Z,10.29
2019-04-26T00:57:00.428Z,10.28
2019-04-26T00:59:32.704Z,10.16
2019-04-26T01:02:10.136Z,10.26
2019-04-26T01:04:39.878Z,10.23
2019-04-26T01:07:09.598Z,10.25
2019-04-26T01:09:39.331Z,10.26
2019-04-26T01:12:09.059Z,10.33
2019-04-26T01:14:38.817Z,10.30
2019-04-26T01:17:08.494Z,10.28
2019-04-26T01:19:40.734Z,10.29
2019-04-26T01:22:18.383Z,10.22
2019-04-26T01:24:51.084Z,10.29
2019-04-26T01:27:23.845Z,10.13
2019-04-26T01:29:57.491Z,10.11
2019-04-26T01:32:29.958Z,10.01
2019-04-26T01:35:00.071Z,10.00
2019-04-26T01:37:31.324Z,10.00
2019-04-26T01:40:06.578Z,9.99
2019-04-26T01:42:45.451Z,9.93
2019-04-26T01:45:17.473Z,9.90
2019-04-26T01:47:50.579Z,9.89
2019-04-26T01:50:24.028Z,9.95
2019-04-26T01:52:54.848Z,9.81
2019-04-26T01:55:26.982Z,9.76
2019-04-26T01:57:58.171Z,9.74
2019-04-26T02:00:29.600Z,9.74
2019-04-26T02:03:00.916Z,9.72
2019-04-26T02:05:30.741Z,9.75
2019-04-26T02:08:00.783Z,9.80
2019-04-26T02:10:30.770Z,9.84
2019-04-26T02:13:01.499Z,9.80
2019-04-26T02:15:33.632Z,9.77
2019-04-26T02:18:04.912Z,9.75
2019-04-26T02:21:04.934Z,9.77
2019-04-26T02:23:42.331Z,9.69
2019-04-26T02:26:30.402Z,9.69
2019-04-26T02:29:00.340Z,9.63
2019-04-26T02:31:31.434Z,9.61
2019-04-26T02:34:03.639Z,9.58
2019-04-26T02:36:54.626Z,9.59
2019-04-26T02:39:22.942Z,9.73
2019-04-26T02:41:55.456Z,9.67
2019-04-26T02:44:31.320Z,9.69
2019-04-26T02:47:49.423Z,9.63
2019-04-26T02:50:22.753Z,9.72
2019-04-26T02:53:25.546Z,9.71
2019-04-26T02:56:16.732Z,9.72
2019-04-26T02:59:03.315Z,9.69
2019-04-26T03:01:35.964Z,9.71
2019-04-26T03:04:05.420Z,9.73
2019-04-26T03:06:37.259Z,9.76
2019-04-26T03:09:08.159Z,9.79
2019-04-26T03:12:02.137Z,9.77
2019-04-26T03:14:41.984Z,9.81
2019-04-26T03:17:17.564Z,9.89
2019-04-26T03:20:05.331Z,9.95
2019-04-26T03:22:59.821Z,9.98
2019-04-26T03:26:05.580Z,10.03
2019-04-26T03:29:02.356Z,9.98
2019-04-26T03:31:46.060Z,9.98
2019-04-26T03:34:14.505Z,9.89
2019-04-26T03:37:25.416Z,9.95
2019-04-26T03:40:44.601Z,9.98
2019-04-26T03:43:48.121Z,10.00
2019-04-26T03:46:39.052Z,9.96
2019-04-26T03:49:41.524Z,9.95
2019-04-26T03:52:52.293Z,9.89
2019-04-26T03:55:34.590Z,9.89
2019-04-26T03:59:02.484Z,9.93
2019-04-26T04:01:39.459Z,9.95
2019-04-26T04:04:29.984Z,9.96
2019-04-26T04:07:04.583Z,9.91
2019-04-26T04:09:35.888Z,9.91
2019-04-26T04:12:17.147Z,9.87
2019-04-26T04:15:15.561Z,9.88
2019-04-26T04:18:03.407Z,9.91
2019-04-26T04:21:15.426Z,9.91
2019-04-26T04:24:10.882Z,9.89
2019-04-26T04:27:14.356Z,9.90
2019-04-26T04:29:55.339Z,9.89
2019-04-26T04:32:49.794Z,9.85
2019-04-26T04:35:23.409Z,9.82
2019-04-26T04:38:34.401Z,9.82
2019-04-26T04:41:25.581Z,9.76
2019-04-26T04:44:30.521Z,9.87
2019-04-26T04:47:31.004Z,9.77
2019-04-26T04:50:17.253Z,9.84
2019-04-26T04:53:37.527Z,9.84
2019-04-26T04:56:39.424Z,9.87
2019-04-26T04:59:29.184Z,9.93
2019-04-26T05:02:08.272Z,9.82
2019-04-26T05:05:18.676Z,9.71
2019-04-26T05:08:29.850Z,9.67
2019-04-26T05:11:18.472Z,9.79
2019-04-26T05:14:05.450Z,9.63
2019-04-26T05:17:16.157Z,9.77
2019-04-26T05:19:53.407Z,9.79
2019-04-26T05:22:59.413Z,9.75
2019-04-26T05:26:37.586Z,9.92
2019-04-26T05:29:33.404Z,9.87
2019-04-26T05:32:44.049Z,9.89
2019-04-26T05:35:51.036Z,9.93
2019-04-26T05:38:40.843Z,9.79
2019-04-26T05:41:24.652Z,9.66
2019-04-26T05:44:24.958Z,9.75
2019-04-26T05:47:35.798Z,9.78
2019-04-26T05:50:59.324Z,9.70
2019-04-26T05:54:05.341Z,9.80
2019-04-26T05:56:59.455Z,9.82
2019-04-26T05:59:36.973Z,9.81
2019-04-26T06:02:47.792Z,9.68
2019-04-26T06:05:38.960Z,9.76
2019-04-26T06:08:31.187Z,9.80
2019-04-26T06:11:12.010Z,9.86
2019-04-26T06:14:00.205Z,9.79
2019-04-26T06:17:04.329Z,9.83
2019-04-26T06:20:06.339Z,9.84
2019-04-26T06:23:00.658Z,9.80
2019-04-26T06:25:42.897Z,9.82
2019-04-26T06:28:35.392Z,9.83
2019-04-26T06:31:31.670Z,9.82
2019-04-26T06:34:11.914Z,9.77
2019-04-26T06:36:59.874Z,9.77
2019-04-26T06:39:43.153Z,9.78
2019-04-26T06:42:32.513Z,9.77
2019-04-26T06:45:43.229Z,9.67
2019-04-26T06:48:39.026Z,9.79
2019-04-26T06:51:32.156Z,9.72
2019-04-26T06:54:17.031Z,9.88
2019-04-26T06:57:14.882Z,9.95
2019-04-26T07:00:18.586Z,9.94
2019-04-26T07:03:11.189Z,9.94
2019-04-26T07:05:51.893Z,10.05
2019-04-26T07:08:56.421Z,10.10
2019-04-26T07:12:02.957Z,10.06
2019-04-26T07:15:12.812Z,10.18
2019-04-26T07:18:22.256Z,10.22
2019-04-26T07:21:34.609Z,10.18
2019-04-26T07:25:17.811Z,10.27
2019-04-26T07:28:25.535Z,10.47
2019-04-26T07:31:15.560Z,10.40
2019-04-26T07:34:12.690Z,10.48
2019-04-26T07:37:28.443Z,10.73
2019-04-26T07:40:26.834Z,10.77
2019-04-26T07:43:32.825Z,10.53
2019-04-26T07:46:51.321Z,10.66
2019-04-26T07:49:48.224Z,10.54
2019-04-26T07:52:57.594Z,10.57
2019-04-26T07:56:05.374Z,10.63
2019-04-26T07:59:22.610Z,10.82
2019-04-26T08:02:21.397Z,10.78
2019-04-26T08:04:59.294Z,10.79
2019-04-26T08:07:33.801Z,10.90
2019-04-26T08:10:17.130Z,10.96
2019-04-26T08:12:51.998Z,10.92
2019-04-26T08:15:30.861Z,11.10
2019-04-26T08:18:20.475Z,11.03
2019-04-26T08:20:54.456Z,10.93
2019-04-26T08:23:41.949Z,11.14
2019-04-26T08:26:09.152Z,11.33
2019-04-26T08:28:41.991Z,11.09
2019-04-26T08:31:20.021Z,11.41
2019-04-26T08:33:52.445Z,11.24
2019-04-26T08:36:27.125Z,11.26
2019-04-26T08:39:01.679Z,11.16
2019-04-26T08:41:35.280Z,11.31
2019-04-26T08:44:11.152Z,11.55
2019-04-26T08:46:53.974Z,11.53
2019-04-26T08:49:31.323Z,11.36
2019-04-26T08:52:13.869Z,11.32
2019-04-26T08:54:40.301Z,11.29
2019-04-26T08:57:12.503Z,11.47
2019-04-26T08:59:49.594Z,11.58
2019-04-26T09:02:36.231Z,11.61
2019-04-26T09:05:19.445Z,11.70
2019-04-26T09:07:53.373Z,11.96
2019-04-26T09:10:27.459Z,12.00
2019-04-26T09:13:00.787Z,12.08
2019-04-26T09:15:44.565Z,12.21
2019-04-26T09:18:15.048Z,12.07
2019-04-26T09:20:45.366Z,12.24
2019-04-26T09:23:23.098Z,12.30
2019-04-26T09:25:59.272Z,12.24
2019-04-26T09:28:47.200Z,12.54
2019-04-26T09:31:35.292Z,12.54
2019-04-26T09:34:15.756Z,12.51
2019-04-26T09:36:45.978Z,12.72
2019-04-26T09:39:16.959Z,12.71
2019-04-26T09:41:48.018Z,12.73
2019-04-26T09:44:22.630Z,13.01
2019-04-26T09:47:06.315Z,12.98
2019-04-26T09:49:42.310Z,13.22
2019-04-26T09:52:16.869Z,13.08
2019-04-26T09:54:47.225Z,13.01
2019-04-26T09:57:17.378Z,13.07
2019-04-26T09:59:47.642Z,13.23
2019-04-26T10:02:17.914Z,13.45
2019-04-26T10:04:48.212Z,13.70
2019-04-26T10:07:18.907Z,13.89
2019-04-26T10:09:56.002Z,13.95
2019-04-26T10:12:24.320Z,14.00
2019-04-26T10:14:56.293Z,14.04
2019-04-26T10:17:28.203Z,13.90
2019-04-26T10:19:58.489Z,14.04
2019-04-26T10:22:30.489Z,14.04
2019-04-26T10:25:02.508Z,14.31
2019-04-26T10:27:36.402Z,13.94
2019-04-26T10:30:11.538Z,14.04
2019-04-26T10:32:41.885Z,13.68
2019-04-26T10:35:12.322Z,13.65
2019-04-26T10:37:43.900Z,13.95
2019-04-26T10:40:15.144Z,13.93
2019-04-26T10:42:45.575Z,14.04
2019-04-26T10:45:16.417Z,14.27
2019-04-26T10:47:47.006Z,14.48
2019-04-26T10:50:17.849Z,14.65
2019-04-26T10:52:54.071Z,14.97
2019-04-26T10:55:21.492Z,15.08
2019-04-26T10:58:00.184Z,15.14
2019-04-26T11:00:32.041Z,15.32
2019-04-26T11:03:04.448Z,15.41
2019-04-26T11:05:35.086Z,15.57
2019-04-26T11:08:05.889Z,15.54
2019-04-26T11:10:48.594Z,15.56
2019-04-26T11:13:11.200Z,15.57
2019-04-26T11:15:43.044Z,15.41
2019-04-26T11:18:13.291Z,15.48
2019-04-26T11:20:45.595Z,15.58
2019-04-26T11:23:15.634Z,15.69
2019-04-26T11:25:47.208Z,15.95
2019-04-26T11:28:21.409Z,16.04
2019-04-26T11:30:52.040Z,16.20
2019-04-26T11:33:21.159Z,15.92
2019-04-26T11:35:51.409Z,16.27
2019-04-26T11:38:22.052Z,16.16
2019-04-26T11:41:05.376Z,16.02
2019-04-26T11:43:23.633Z,16.23
2019-04-26T11:46:03.719Z,16.47
2019-04-26T11:48:29.181Z,16.54
2019-04-26T11:50:58.108Z,16.63
2019-04-26T11:53:28.313Z,16.63
2019-04-26T11:56:04.387Z,16.30
2019-04-26T11:58:32.300Z,16.65
2019-04-26T12:01:04.305Z,16.63
2019-04-26T12:03:34.973Z,16.93
2019-04-26T12:06:06.563Z,17.29
2019-04-26T12:08:38.742Z,17.66
2019-04-26T12:11:17.809Z,17.80
2019-04-26T12:13:40.151Z,17.81
2019-04-26T12:16:10.596Z,17.46
2019-04-26T12:18:44.239Z,17.26
2019-04-26T12:21:12.059Z,17.76
2019-04-26T12:23:42.452Z,17.96
2019-04-26T12:26:17.335Z,17.90
2019-04-26T12:28:45.966Z,17.75
2019-04-26T12:31:16.127Z,18.03
2019-04-26T12:33:47.987Z,17.81
2019-04-26T12:36:18.340Z,17.49
2019-04-26T12:38:49.996Z,17.52
2019-04-26T12:41:30.056Z,17.54
2019-04-26T12:43:54.554Z,17.33
2019-04-26T12:46:43.201Z,17.20
2019-04-26T12:49:13.912Z,16.90
2019-04-26T12:51:47.314Z,16.55
2019-04-26T12:54:16.663Z,16.40
2019-04-26T12:56:47.149Z,16.20
2019-04-26T12:59:17.246Z,16.43
2019-04-26T13:01:48.198Z,16.60
2019-04-26T13:04:18.642Z,16.63
2019-04-26T13:06:50.410Z,16.87
2019-04-26T13:09:21.948Z,16.54
2019-04-26T13:12:09.961Z,16.72
2019-04-26T13:14:44.381Z,17.13
2019-04-26T13:17:24.675Z,17.50
2019-04-26T13:19:55.497Z,17.73
2019-04-26T13:22:25.856Z,17.67
2019-04-26T13:24:56.292Z,18.00
2019-04-26T13:27:26.794Z,18.43
2019-04-26T13:30:02.506Z,18.18
2019-04-26T13:32:29.348Z,17.92
2019-04-26T13:34:59.591Z,17.84
2019-04-26T13:37:32.203Z,17.87
2019-04-26T13:40:01.585Z,17.57
2019-04-26T13:42:32.277Z,16.95
2019-04-26T13:45:04.366Z,16.72
2019-04-26T13:47:35.367Z,16.61
2019-04-26T13:50:22.322Z,16.58
2019-04-26T13:52:51.333Z,16.63
2019-04-26T13:55:25.361Z,17.06
2019-04-26T13:57:55.965Z,17.71
2019-04-26T14:00:26.321Z,17.74
2019-04-26T14:02:56.778Z,17.72
2019-04-26T14:05:27.889Z,18.40
2019-04-26T14:07:59.510Z,18.51
2019-04-26T14:10:30.108Z,18.48
2019-04-26T14:13:00.450Z,18.74
2019-04-26T14:15:30.914Z,19.06
2019-04-26T14:18:04.395Z,19.14
2019-04-26T14:20:34.935Z,19.28
2019-04-26T14:23:19.573Z,19.21
2019-04-26T14:26:01.146Z,19.16
2019-04-26T14:28:32.363Z,19.12
2019-04-26T14:31:02.720Z,19.63
2019-04-26T14:33:33.554Z,20.48
2019-04-26T14:36:16.657Z,20.73
2019-04-26T14:38:40.055Z,21.77
2019-04-26T14:41:09.414Z,21.80
2019-04-26T14:43:41.625Z,21.51
2019-04-26T14:46:14.729Z,21.18
2019-04-26T14:49:00.643Z,20.97
2019-04-26T14:51:19.581Z,21.94
2019-04-26T14:53:50.047Z,22.71
2019-04-26T14:56:19.581Z,23.17
2019-04-26T14:58:49.837Z,23.98
2019-04-26T15:01:22.564Z,24.08
2019-04-26T15:03:57.125Z,24.27
2019-04-26T15:06:27.529Z,24.05
2019-04-26T15:08:57.917Z,24.70
2019-04-26T15:11:28.247Z,25.16
2019-04-26T15:13:59.955Z,24.85
2019-04-26T15:16:30.157Z,25.24
2019-04-26T15:19:00.283Z,24.79
2019-04-26T15:21:31.764Z,25.01
2019-04-26T15:24:02.921Z,25.45
2019-04-26T15:26:34.051Z,25.14
2019-04-26T15:29:04.514Z,24.20
2019-04-26T15:31:34.986Z,24.09
2019-04-26T15:34:05.460Z,25.07
2019-04-26T15:36:35.617Z,25.07
2019-04-26T15:39:13.632Z,24.80
2019-04-26T15:41:47.039Z,25.19
2019-04-26T15:44:20.285Z,25.66
2019-04-26T15:47:05.524Z,26.04
2019-04-26T15:49:39.372Z,25.30
2019-04-26T15:52:10.045Z,25.41
2019-04-26T15:54:40.306Z,25.72
2019-04-26T15:57:12.096Z,25.75
2019-04-26T15:59:43.031Z,26.12
2019-04-26T16:02:13.431Z,26.22
2019-04-26T16:04:47.353Z,26.66
2019-04-26T16:07:26.976Z,27.36
2019-04-26T16:09:53.366Z,26.22
2019-04-26T16:12:25.792Z,25.93
2019-04-26T16:14:54.930Z,25.72
2019-04-26T16:17:25.963Z,24.61
2019-04-26T16:20:15.420Z,23.77
2019-04-26T16:22:48.919Z,23.46
2019-04-26T16:25:17.920Z,24.47
2019-04-26T16:27:51.794Z,25.10
2019-04-26T16:30:28.519Z,25.95
2019-04-26T16:33:09.786Z,26.20
2019-04-26T16:35:42.040Z,26.86
2019-04-26T16:38:29.418Z,26.30
2019-04-26T16:41:00.204Z,25.09
2019-04-26T16:43:37.701Z,24.42
2019-04-26T16:46:02.624Z,24.87
2019-04-26T16:48:33.406Z,24.22
2019-04-26T16:51:08.304Z,23.30
2019-04-26T16:53:52.135Z,22.96
2019-04-26T16:56:08.752Z,22.26
2019-04-26T16:58:45.053Z,21.57
2019-04-26T17:01:12.401Z,21.24
2019-04-26T17:03:47.963Z,21.04
2019-04-26T17:06:16.367Z,20.67
2019-04-26T17:08:49.949Z,20.36
2019-04-26T17:11:20.003Z,20.10
2019-04-26T17:13:54.552Z,19.92
2019-04-26T17:16:25.677Z,19.80
2019-04-26T17:18:59.538Z,19.60
2019-04-26T17:21:28.879Z,19.38
2019-04-26T17:24:13.006Z,19.17
2019-04-26T17:26:50.752Z,19.04
2019-04-26T17:29:22.624Z,18.87
2019-04-26T17:31:54.578Z,18.83
2019-04-26T17:34:28.971Z,18.77
2019-04-26T17:36:58.163Z,18.60
2019-04-26T17:39:30.301Z,18.56
2019-04-26T17:42:01.155Z,18.44
2019-04-26T17:44:34.003Z,18.32
2019-04-26T17:47:04.199Z,18.25
2019-04-26T17:49:35.672Z,17.96
2019-04-26T17:52:07.541Z,17.75
2019-04-26T17:54:46.712Z,17.73
2019-04-26T17:57:12.687Z,17.70
2019-04-26T17:59:47.482Z,17.55
2019-04-26T18:02:25.762Z,17.43
2019-04-26T18:04:57.856Z,17.26
2019-04-26T18:07:37.558Z,17.11
2019-04-26T18:09:50.690Z,17.00
2019-04-26T18:12:22.701Z,16.92
2019-04-26T18:14:53.786Z,16.84
2019-04-26T18:17:38.905Z,16.65
2019-04-26T18:20:21.150Z,16.49
2019-04-26T18:23:05.193Z,16.29
2019-04-26T18:25:33.017Z,16.14
2019-04-26T18:28:04.651Z,15.97
2019-04-26T18:30:34.902Z,15.87
2019-04-26T18:33:05.559Z,15.85
2019-04-26T18:35:36.046Z,15.74
2019-04-26T18:38:08.560Z,15.76
2019-04-26T18:40:57.208Z,15.80
2019-04-26T18:43:12.541Z,15.73
2019-04-26T18:45:44.403Z,15.72
2019-04-26T18:48:15.055Z,15.66
2019-04-26T18:50:46.056Z,15.63
2019-04-26T18:53:16.124Z,15.75
2019-04-26T18:55:48.002Z,15.57
2019-04-26T18:58:18.484Z,15.48
2019-04-26T19:00:50.510Z,15.39
2019-04-26T19:03:19.642Z,15.40
2019-04-26T19:05:49.732Z,15.38
2019-04-26T19:08:20.895Z,15.33
2019-04-26T19:10:59.216Z,15.38
2019-04-26T19:13:36.438Z,15.42
2019-04-26T19:16:10.624Z,15.37
2019-04-26T19:18:53.208Z,15.25
2019-04-26T19:21:40.661Z,15.33
2019-04-26T19:24:17.221Z,15.29
2019-04-26T19:26:45.363Z,15.23
2019-04-26T19:29:18.055Z,15.25
2019-04-26T19:31:46.518Z,15.25
2019-04-26T19:34:17.792Z,15.12
2019-04-26T19:36:47.715Z,15.18
2019-04-26T19:39:22.841Z,15.11
2019-04-26T19:41:51.988Z,15.05
2019-04-26T19:44:24.074Z,15.04
2019-04-26T19:47:10.010Z,15.03
2019-04-26T19:49:41.445Z,14.99
2019-04-26T19:52:12.640Z,14.87
2019-04-26T19:54:46.543Z,14.88
2019-04-26T19:57:21.709Z,14.79
2019-04-26T19:59:52.604Z,14.65
2019-04-26T20:02:22.429Z,14.72
2019-04-26T20:04:52.177Z,14.58
2019-04-26T20:07:24.233Z,14.51
2019-04-26T20:09:56.359Z,14.39
2019-04-26T20:12:25.330Z,14.22
2019-04-26T20:14:58.474Z,14.23
2019-04-26T20:17:38.539Z,14.14
2019-04-26T20:20:18.974Z,13.95
2019-04-26T20:22:42.011Z,14.10
2019-04-26T20:25:12.001Z,13.97
2019-04-26T20:27:41.828Z,13.71
2019-04-26T20:30:13.451Z,13.89
2019-04-26T20:32:45.963Z,13.70
2019-04-26T20:35:26.939Z,13.70
2019-04-26T20:37:56.286Z,13.64
2019-04-26T20:40:25.811Z,13.68
2019-04-26T20:43:01.728Z,13.78
2019-04-26T20:45:38.722Z,13.78
2019-04-26T20:47:58.321Z,13.72
2019-04-26T20:50:32.637Z,13.79
2019-04-26T20:53:00.940Z,13.71
2019-04-26T20:55:34.510Z,13.66
2019-04-26T20:58:05.779Z,13.68
2019-04-26T21:00:36.557Z,13.67
2019-04-26T21:03:06.339Z,13.65
2019-04-26T21:05:45.909Z,13.73
2019-04-26T21:08:08.353Z,13.58
2019-04-26T21:10:38.082Z,13.58
2019-04-26T21:13:08.819Z,13.58
2019-04-26T21:15:38.590Z,13.54
2019-04-26T21:18:08.383Z,13.56
2019-04-26T21:20:38.148Z,13.48
2019-04-26T21:23:07.929Z,13.40
2019-04-26T21:25:39.224Z,13.41
2019-04-26T21:28:11.598Z,13.33
2019-04-26T21:30:59.127Z,13.29
2019-04-26T21:33:35.250Z,13.26
2019-04-26T21:36:08.705Z,13.29
2019-04-26T21:38:45.555Z,13.23
2019-04-26T21:41:19.358Z,13.16
2019-04-26T21:43:49.018Z,13.11
2019-04-26T21:46:20.020Z,13.12
2019-04-26T21:48:53.457Z,13.11
2019-04-26T21:51:23.195Z,13.11
2019-04-26T21:53:53.085Z,13.09
2019-04-26T21:56:23.542Z,13.11
2019-04-26T21:58:53.450Z,13.11
2019-04-26T22:01:25.255Z,13.14
2019-04-26T22:03:58.273Z,13.16
2019-04-26T22:06:28.674Z,13.07
2019-04-26T22:09:14.497Z,12.95
2019-04-26T22:11:44.472Z,12.94
2019-04-26T22:14:20.174Z,12.87
2019-04-26T22:17:05.526Z,12.76
2019-04-26T22:19:37.035Z,12.72
2019-04-26T22:22:06.910Z,12.55
2019-04-26T22:24:43.937Z,12.53
2019-04-26T22:27:17.368Z,12.53
2019-04-26T22:29:47.632Z,12.47
2019-04-26T22:32:19.103Z,12.45
2019-04-26T22:34:48.222Z,12.40
2019-04-26T22:37:29.154Z,12.34
2019-04-26T22:39:49.310Z,12.41
2019-04-26T22:42:19.856Z,12.38
2019-04-26T22:44:54.001Z,12.30
2019-04-26T22:47:40.860Z,12.21
2019-04-26T22:50:07.161Z,12.11
2019-04-26T22:52:38.404Z,12.14
2019-04-26T22:55:09.210Z,12.12
2019-04-26T22:57:38.740Z,12.03
2019-04-26T23:00:08.827Z,12.04
2019-04-26T23:02:38.479Z,12.03
2019-04-26T23:05:08.407Z,11.97
2019-04-26T23:07:38.972Z,11.85
2019-04-26T23:10:10.498Z,11.80
2019-04-26T23:12:57.955Z,11.80
2019-04-26T23:15:47.813Z,11.79
2019-04-26T23:18:24.988Z,11.70
2019-04-26T23:20:56.234Z,11.57
2019-04-26T23:23:25.974Z,11.40
2019-04-26T23:25:55.615Z,11.31
2019-04-26T23:28:27.696Z,11.29
2019-04-26T23:30:56.826Z,11.35
2019-04-26T23:33:26.484Z,11.38
2019-04-26T23:35:56.196Z,11.26
2019-04-26T23:38:25.824Z,11.25
2019-04-26T23:40:57.227Z,11.21
2019-04-26T23:43:27.128Z,11.12
2019-04-26T23:45:56.780Z,11.18
2019-04-26T23:48:26.482Z,11.12
2019-04-26T23:50:59.846Z,11.18
2019-04-26T23:53:27.451Z,11.21
2019-04-26T23:55:57.240Z,11.09
2019-04-26T23:58:26.865Z,11.07
